Roosevelt, Minnesota
Current Conditions -  °F | °C
As of 8:34 AM on Friday 24 Oct 2014 (Local Time) from KRRT Reporting Station
Clear Clear  
Wind Chill: 44°   Ceiling: Unl
Heat Index: 48°   Visibility: 10mi
Dew Point: 43°   Wind: 9mph
Humidity: 82%   Direction: 220°SW
Pressure: 29.72"   Gusts: NA
Location:  48.8°N, 95.1°W
Report Text: KRRT 241334Z AUTO 22008KT 10SM CLR 09/06 A2972 RMK AO2
Loading
Personal Weather Stations






























Interactive Weather Map
Tropical Storm Tracking
New forecast layout! Learn more

10-Day Weather Forecast

Advertisements
Track Severe Weather on mobile